sensor_id;sensor_type;location;lat;lon;timestamp;P1;durP1;ratioP1;P2;durP2;ratioP2
18125;SDS011;53956;52.442;13.284;2022-11-20T00:00:16;19.93;;;13.77;;
18125;SDS011;53956;52.442;13.284;2022-11-20T00:02:43;19.77;;;13.77;;
18125;SDS011;53956;52.442;13.284;2022-11-20T00:05:10;21.47;;;13.97;;
18125;SDS011;53956;52.442;13.284;2022-11-20T00:07:37;19.53;;;13.40;;
18125;SDS011;53956;52.442;13.284;2022-11-20T00:10:04;21.93;;;13.97;;
18125;SDS011;53956;52.442;13.284;2022-11-20T00:12:31;21.70;;;14.43;;
18125;SDS011;53956;52.442;13.284;2022-11-20T00:14:58;20.47;;;13.47;;
18125;SDS011;53956;52.442;13.284;2022-11-20T00:17:24;22.63;;;14.60;;
18125;SDS011;53956;52.442;13.284;2022-11-20T00:19:51;18.97;;;14.07;;
18125;SDS011;53956;52.442;13.284;2022-11-20T00:22:20;20.77;;;13.73;;
18125;SDS011;53956;52.442;13.284;2022-11-20T00:24:46;22.33;;;15.17;;
18125;SDS011;53956;52.442;13.284;2022-11-20T00:27:13;21.20;;;14.30;;
18125;SDS011;53956;52.442;13.284;2022-11-20T00:29:40;23.17;;;14.87;;
18125;SDS011;53956;52.442;13.284;2022-11-20T00:32:06;22.13;;;15.20;;
18125;SDS011;53956;52.442;13.284;2022-11-20T00:34:33;20.77;;;14.30;;
18125;SDS011;53956;52.442;13.284;2022-11-20T00:36:59;21.03;;;15.03;;
18125;SDS011;53956;52.442;13.284;2022-11-20T00:39:27;22.10;;;14.63;;
18125;SDS011;53956;52.442;13.284;2022-11-20T00:41:54;21.83;;;14.37;;
18125;SDS011;53956;52.442;13.284;2022-11-20T00:44:21;21.80;;;14.43;;
18125;SDS011;53956;52.442;13.284;2022-11-20T00:46:47;19.60;;;14.13;;
18125;SDS011;53956;52.442;13.284;2022-11-20T00:49:14;23.60;;;15.10;;
18125;SDS011;53956;52.442;13.284;2022-11-20T00:51:40;23.37;;;15.00;;
18125;SDS011;53956;52.442;13.284;2022-11-20T00:54:07;21.63;;;12.47;;
18125;SDS011;53956;52.442;13.284;2022-11-20T00:56:35;23.40;;;14.50;;
18125;SDS011;53956;52.442;13.284;2022-11-20T00:59:02;20.73;;;14.30;;
18125;SDS011;53956;52.442;13.284;2022-11-20T01:01:29;21.93;;;14.53;;
18125;SDS011;53956;52.442;13.284;2022-11-20T01:03:56;21.50;;;14.83;;
18125;SDS011;53956;52.442;13.284;2022-11-20T01:06:25;23.63;;;15.03;;
18125;SDS011;53956;52.442;13.284;2022-11-20T01:08:54;23.33;;;15.33;;
18125;SDS011;53956;52.442;13.284;2022-11-20T01:11:22;21.73;;;14.70;;
18125;SDS011;53956;52.442;13.284;2022-11-20T01:13:52;21.57;;;14.53;;
18125;SDS011;53956;52.442;13.284;2022-11-20T01:16:20;19.93;;;14.23;;
18125;SDS011;53956;52.442;13.284;2022-11-20T01:18:48;23.17;;;15.67;;
18125;SDS011;53956;52.442;13.284;2022-11-20T01:21:17;22.93;;;15.53;;
18125;SDS011;53956;52.442;13.284;2022-11-20T01:23:46;22.73;;;14.97;;
18125;SDS011;53956;52.442;13.284;2022-11-20T01:26:15;23.50;;;15.10;;
18125;SDS011;53956;52.442;13.284;2022-11-20T01:28:44;21.23;;;14.13;;
18125;SDS011;53956;52.442;13.284;2022-11-20T01:31:13;23.83;;;15.90;;
18125;SDS011;53956;52.442;13.284;2022-11-20T01:33:41;25.40;;;15.37;;
18125;SDS011;53956;52.442;13.284;2022-11-20T01:36:09;23.43;;;14.67;;
18125;SDS011;53956;52.442;13.284;2022-11-20T01:38:36;23.87;;;15.63;;
18125;SDS011;53956;52.442;13.284;2022-11-20T01:41:03;21.90;;;15.13;;
18125;SDS011;53956;52.442;13.284;2022-11-20T01:43:30;21.77;;;15.03;;
18125;SDS011;53956;52.442;13.284;2022-11-20T01:45:58;22.60;;;15.33;;
18125;SDS011;53956;52.442;13.284;2022-11-20T01:48:44;22.90;;;15.20;;
18125;SDS011;53956;52.442;13.284;2022-11-20T01:51:17;23.07;;;14.90;;
18125;SDS011;53956;52.442;13.284;2022-11-20T01:53:49;20.90;;;14.67;;
18125;SDS011;53956;52.442;13.284;2022-11-20T01:56:17;23.17;;;15.23;;
18125;SDS011;53956;52.442;13.284;2022-11-20T01:58:45;22.63;;;15.27;;
18125;SDS011;53956;52.442;13.284;2022-11-20T02:01:14;26.73;;;15.70;;
18125;SDS011;53956;52.442;13.284;2022-11-20T02:03:41;22.30;;;15.00;;
18125;SDS011;53956;52.442;13.284;2022-11-20T02:06:12;25.03;;;15.17;;
18125;SDS011;53956;52.442;13.284;2022-11-20T02:08:42;22.13;;;15.07;;
18125;SDS011;53956;52.442;13.284;2022-11-20T02:11:09;24.23;;;14.97;;
18125;SDS011;53956;52.442;13.284;2022-11-20T02:13:37;24.87;;;14.97;;
18125;SDS011;53956;52.442;13.284;2022-11-20T02:16:16;23.03;;;15.23;;
18125;SDS011;53956;52.442;13.284;2022-11-20T02:18:48;25.07;;;14.97;;
18125;SDS011;53956;52.442;13.284;2022-11-20T02:21:21;24.37;;;15.53;;
18125;SDS011;53956;52.442;13.284;2022-11-20T02:24:02;21.13;;;14.60;;
18125;SDS011;53956;52.442;13.284;2022-11-20T02:26:32;22.47;;;15.20;;
18125;SDS011;53956;52.442;13.284;2022-11-20T02:29:03;24.07;;;15.80;;
18125;SDS011;53956;52.442;13.284;2022-11-20T02:31:33;22.57;;;14.80;;
18125;SDS011;53956;52.442;13.284;2022-11-20T02:34:03;22.33;;;15.20;;
18125;SDS011;53956;52.442;13.284;2022-11-20T02:36:30;24.63;;;14.73;;
18125;SDS011;53956;52.442;13.284;2022-11-20T02:38:58;24.37;;;15.27;;
18125;SDS011;53956;52.442;13.284;2022-11-20T02:41:31;22.10;;;14.70;;
18125;SDS011;53956;52.442;13.284;2022-11-20T02:43:59;24.70;;;14.87;;
18125;SDS011;53956;52.442;13.284;2022-11-20T02:46:26;24.77;;;15.77;;
18125;SDS011;53956;52.442;13.284;2022-11-20T02:48:53;22.13;;;15.27;;
18125;SDS011;53956;52.442;13.284;2022-11-20T02:51:19;23.33;;;15.30;;
18125;SDS011;53956;52.442;13.284;2022-11-20T02:53:46;22.27;;;15.20;;
18125;SDS011;53956;52.442;13.284;2022-11-20T02:56:13;25.40;;;15.60;;
18125;SDS011;53956;52.442;13.284;2022-11-20T02:58:41;21.77;;;14.73;;
18125;SDS011;53956;52.442;13.284;2022-11-20T03:01:08;22.97;;;15.67;;
18125;SDS011;53956;52.442;13.284;2022-11-20T03:03:34;24.27;;;15.97;;
18125;SDS011;53956;52.442;13.284;2022-11-20T03:06:01;22.67;;;15.27;;
18125;SDS011;53956;52.442;13.284;2022-11-20T03:08:28;23.87;;;15.53;;
18125;SDS011;53956;52.442;13.284;2022-11-20T03:10:54;23.20;;;14.97;;
18125;SDS011;53956;52.442;13.284;2022-11-20T03:13:21;23.40;;;15.57;;
18125;SDS011;53956;52.442;13.284;2022-11-20T03:15:49;24.57;;;16.57;;
18125;SDS011;53956;52.442;13.284;2022-11-20T03:18:16;26.80;;;15.87;;
18125;SDS011;53956;52.442;13.284;2022-11-20T03:20:42;24.40;;;15.57;;
18125;SDS011;53956;52.442;13.284;2022-11-20T03:23:09;25.80;;;15.87;;
18125;SDS011;53956;52.442;13.284;2022-11-20T03:25:35;22.67;;;15.40;;
18125;SDS011;53956;52.442;13.284;2022-11-20T03:28:02;26.17;;;16.47;;
18125;SDS011;53956;52.442;13.284;2022-11-20T03:30:29;25.50;;;16.60;;
18125;SDS011;53956;52.442;13.284;2022-11-20T03:32:57;22.80;;;15.10;;
18125;SDS011;53956;52.442;13.284;2022-11-20T03:35:24;22.73;;;15.03;;
18125;SDS011;53956;52.442;13.284;2022-11-20T03:37:50;25.93;;;16.83;;
18125;SDS011;53956;52.442;13.284;2022-11-20T03:40:17;22.80;;;15.60;;
18125;SDS011;53956;52.442;13.284;2022-11-20T03:42:44;25.97;;;16.07;;
18125;SDS011;53956;52.442;13.284;2022-11-20T03:45:13;23.97;;;16.27;;
18125;SDS011;53956;52.442;13.284;2022-11-20T03:47:41;24.77;;;16.43;;
18125;SDS011;53956;52.442;13.284;2022-11-20T03:50:10;24.90;;;16.17;;
18125;SDS011;53956;52.442;13.284;2022-11-20T03:52:38;25.13;;;16.13;;
18125;SDS011;53956;52.442;13.284;2022-11-20T03:55:05;26.10;;;16.23;;
18125;SDS011;53956;52.442;13.284;2022-11-20T03:57:32;24.93;;;15.80;;
18125;SDS011;53956;52.442;13.284;2022-11-20T03:59:59;24.60;;;16.63;;
18125;SDS011;53956;52.442;13.284;2022-11-20T04:02:26;25.10;;;15.53;;
18125;SDS011;53956;52.442;13.284;2022-11-20T04:04:52;25.33;;;16.07;;
18125;SDS011;53956;52.442;13.284;2022-11-20T04:07:20;23.93;;;16.37;;
18125;SDS011;53956;52.442;13.284;2022-11-20T04:09:47;26.20;;;15.73;;
18125;SDS011;53956;52.442;13.284;2022-11-20T04:12:14;27.43;;;16.17;;
18125;SDS011;53956;52.442;13.284;2022-11-20T04:14:40;29.17;;;17.17;;
18125;SDS011;53956;52.442;13.284;2022-11-20T04:17:07;25.57;;;17.13;;
18125;SDS011;53956;52.442;13.284;2022-11-20T04:19:34;22.90;;;15.70;;
18125;SDS011;53956;52.442;13.284;2022-11-20T04:22:00;25.80;;;16.83;;
18125;SDS011;53956;52.442;13.284;2022-11-20T04:24:28;25.17;;;16.53;;
18125;SDS011;53956;52.442;13.284;2022-11-20T04:26:55;28.07;;;17.20;;
18125;SDS011;53956;52.442;13.284;2022-11-20T04:29:22;24.73;;;16.50;;
18125;SDS011;53956;52.442;13.284;2022-11-20T04:31:49;25.67;;;16.67;;
18125;SDS011;53956;52.442;13.284;2022-11-20T04:34:15;25.13;;;17.10;;
18125;SDS011;53956;52.442;13.284;2022-11-20T04:36:42;24.93;;;16.30;;
18125;SDS011;53956;52.442;13.284;2022-11-20T04:39:12;28.13;;;16.87;;
18125;SDS011;53956;52.442;13.284;2022-11-20T04:41:41;23.10;;;16.37;;
18125;SDS011;53956;52.442;13.284;2022-11-20T04:44:08;25.07;;;16.70;;
18125;SDS011;53956;52.442;13.284;2022-11-20T04:46:36;26.13;;;16.23;;
18125;SDS011;53956;52.442;13.284;2022-11-20T04:49:03;24.80;;;16.40;;
18125;SDS011;53956;52.442;13.284;2022-11-20T04:51:30;24.80;;;16.70;;
18125;SDS011;53956;52.442;13.284;2022-11-20T04:53:57;24.23;;;16.20;;
18125;SDS011;53956;52.442;13.284;2022-11-20T04:56:24;23.73;;;16.03;;
18125;SDS011;53956;52.442;13.284;2022-11-20T04:58:52;24.60;;;16.30;;
18125;SDS011;53956;52.442;13.284;2022-11-20T05:01:19;28.10;;;17.37;;
18125;SDS011;53956;52.442;13.284;2022-11-20T05:03:47;25.83;;;16.80;;
18125;SDS011;53956;52.442;13.284;2022-11-20T05:06:14;25.67;;;16.07;;
18125;SDS011;53956;52.442;13.284;2022-11-20T05:08:43;26.93;;;17.87;;
18125;SDS011;53956;52.442;13.284;2022-11-20T05:11:10;27.07;;;17.20;;
18125;SDS011;53956;52.442;13.284;2022-11-20T05:13:39;27.23;;;17.17;;
18125;SDS011;53956;52.442;13.284;2022-11-20T05:16:08;26.70;;;16.30;;
18125;SDS011;53956;52.442;13.284;2022-11-20T05:18:37;28.53;;;17.10;;
18125;SDS011;53956;52.442;13.284;2022-11-20T05:21:05;26.03;;;17.57;;
18125;SDS011;53956;52.442;13.284;2022-11-20T05:23:32;27.23;;;16.50;;
18125;SDS011;53956;52.442;13.284;2022-11-20T05:26:00;25.63;;;16.67;;
18125;SDS011;53956;52.442;13.284;2022-11-20T05:28:27;24.73;;;16.17;;
18125;SDS011;53956;52.442;13.284;2022-11-20T05:30:55;26.13;;;16.47;;
18125;SDS011;53956;52.442;13.284;2022-11-20T05:33:23;26.00;;;16.27;;
18125;SDS011;53956;52.442;13.284;2022-11-20T05:35:49;25.63;;;16.50;;
18125;SDS011;53956;52.442;13.284;2022-11-20T05:38:16;25.17;;;15.90;;
18125;SDS011;53956;52.442;13.284;2022-11-20T05:40:42;28.10;;;17.30;;
18125;SDS011;53956;52.442;13.284;2022-11-20T05:43:09;24.77;;;16.50;;
18125;SDS011;53956;52.442;13.284;2022-11-20T05:45:36;26.43;;;16.73;;
18125;SDS011;53956;52.442;13.284;2022-11-20T05:48:02;27.00;;;16.93;;
18125;SDS011;53956;52.442;13.284;2022-11-20T05:50:31;27.93;;;18.00;;
18125;SDS011;53956;52.442;13.284;2022-11-20T05:52:57;25.27;;;16.90;;
18125;SDS011;53956;52.442;13.284;2022-11-20T05:55:25;27.47;;;16.87;;
18125;SDS011;53956;52.442;13.284;2022-11-20T05:57:52;27.20;;;16.90;;
18125;SDS011;53956;52.442;13.284;2022-11-20T06:00:19;26.27;;;16.30;;
18125;SDS011;53956;52.442;13.284;2022-11-20T06:02:46;27.07;;;17.07;;
18125;SDS011;53956;52.442;13.284;2022-11-20T06:05:12;27.83;;;17.93;;
18125;SDS011;53956;52.442;13.284;2022-11-20T06:07:41;29.07;;;17.20;;
18125;SDS011;53956;52.442;13.284;2022-11-20T06:10:08;27.47;;;15.97;;
18125;SDS011;53956;52.442;13.284;2022-11-20T06:12:35;25.40;;;16.53;;
18125;SDS011;53956;52.442;13.284;2022-11-20T06:15:01;25.50;;;17.03;;
18125;SDS011;53956;52.442;13.284;2022-11-20T06:17:28;25.17;;;16.13;;
18125;SDS011;53956;52.442;13.284;2022-11-20T06:19:55;24.97;;;16.53;;
18125;SDS011;53956;52.442;13.284;2022-11-20T06:22:22;26.40;;;16.33;;
18125;SDS011;53956;52.442;13.284;2022-11-20T06:24:50;26.30;;;17.07;;
18125;SDS011;53956;52.442;13.284;2022-11-20T06:27:16;27.07;;;16.33;;
18125;SDS011;53956;52.442;13.284;2022-11-20T06:29:43;26.10;;;16.10;;
18125;SDS011;53956;52.442;13.284;2022-11-20T06:32:09;26.80;;;16.60;;
18125;SDS011;53956;52.442;13.284;2022-11-20T06:34:36;28.10;;;17.87;;
18125;SDS011;53956;52.442;13.284;2022-11-20T06:37:03;27.00;;;17.20;;
18125;SDS011;53956;52.442;13.284;2022-11-20T06:39:30;24.93;;;15.53;;
18125;SDS011;53956;52.442;13.284;2022-11-20T06:41:58;28.90;;;16.97;;
18125;SDS011;53956;52.442;13.284;2022-11-20T06:44:24;29.00;;;17.37;;
18125;SDS011;53956;52.442;13.284;2022-11-20T06:46:51;26.43;;;17.50;;
18125;SDS011;53956;52.442;13.284;2022-11-20T06:49:18;28.00;;;18.30;;
18125;SDS011;53956;52.442;13.284;2022-11-20T06:51:44;26.17;;;16.83;;
18125;SDS011;53956;52.442;13.284;2022-11-20T06:54:11;27.27;;;17.60;;
18125;SDS011;53956;52.442;13.284;2022-11-20T06:56:37;29.50;;;17.13;;
18125;SDS011;53956;52.442;13.284;2022-11-20T06:59:06;27.83;;;17.50;;
18125;SDS011;53956;52.442;13.284;2022-11-20T07:01:33;27.40;;;16.70;;
18125;SDS011;53956;52.442;13.284;2022-11-20T07:04:00;26.30;;;16.73;;
18125;SDS011;53956;52.442;13.284;2022-11-20T07:06:27;29.20;;;17.30;;
18125;SDS011;53956;52.442;13.284;2022-11-20T07:08:54;27.20;;;16.57;;
18125;SDS011;53956;52.442;13.284;2022-11-20T07:11:21;29.33;;;17.77;;
18125;SDS011;53956;52.442;13.284;2022-11-20T07:13:47;29.13;;;17.63;;
18125;SDS011;53956;52.442;13.284;2022-11-20T07:16:16;27.97;;;17.27;;
18125;SDS011;53956;52.442;13.284;2022-11-20T07:18:42;48.67;;;20.23;;
18125;SDS011;53956;52.442;13.284;2022-11-20T07:21:09;29.00;;;17.80;;
18125;SDS011;53956;52.442;13.284;2022-11-20T07:23:37;28.80;;;17.30;;
18125;SDS011;53956;52.442;13.284;2022-11-20T07:26:03;26.53;;;16.50;;
18125;SDS011;53956;52.442;13.284;2022-11-20T07:28:31;28.20;;;17.27;;
18125;SDS011;53956;52.442;13.284;2022-11-20T07:30:58;28.73;;;17.97;;
18125;SDS011;53956;52.442;13.284;2022-11-20T07:33:26;30.00;;;18.30;;
18125;SDS011;53956;52.442;13.284;2022-11-20T07:35:52;28.67;;;17.37;;
18125;SDS011;53956;52.442;13.284;2022-11-20T07:38:19;36.83;;;18.93;;
18125;SDS011;53956;52.442;13.284;2022-11-20T07:40:46;40.57;;;19.33;;
18125;SDS011;53956;52.442;13.284;2022-11-20T07:43:12;55.40;;;20.63;;
18125;SDS011;53956;52.442;13.284;2022-11-20T07:45:41;28.93;;;17.33;;
18125;SDS011;53956;52.442;13.284;2022-11-20T07:48:07;27.57;;;16.80;;
18125;SDS011;53956;52.442;13.284;2022-11-20T07:50:35;28.77;;;16.67;;
18125;SDS011;53956;52.442;13.284;2022-11-20T07:53:03;27.13;;;17.23;;
18125;SDS011;53956;52.442;13.284;2022-11-20T07:55:30;32.97;;;18.47;;
18125;SDS011;53956;52.442;13.284;2022-11-20T07:57:57;35.90;;;19.00;;
18125;SDS011;53956;52.442;13.284;2022-11-20T08:00:24;33.13;;;18.87;;
18125;SDS011;53956;52.442;13.284;2022-11-20T08:02:52;65.43;;;23.73;;
18125;SDS011;53956;52.442;13.284;2022-11-20T08:05:19;35.67;;;19.13;;
18125;SDS011;53956;52.442;13.284;2022-11-20T08:07:48;28.70;;;17.83;;
18125;SDS011;53956;52.442;13.284;2022-11-20T08:10:15;26.47;;;18.03;;
18125;SDS011;53956;52.442;13.284;2022-11-20T08:12:45;30.27;;;18.30;;
18125;SDS011;53956;52.442;13.284;2022-11-20T08:15:30;30.90;;;18.93;;
18125;SDS011;53956;52.442;13.284;2022-11-20T08:18:01;29.00;;;18.27;;
18125;SDS011;53956;52.442;13.284;2022-11-20T08:20:29;29.83;;;17.93;;
18125;SDS011;53956;52.442;13.284;2022-11-20T08:23:01;31.27;;;18.40;;
18125;SDS011;53956;52.442;13.284;2022-11-20T08:25:29;29.93;;;18.37;;
18125;SDS011;53956;52.442;13.284;2022-11-20T08:27:59;31.47;;;18.07;;
18125;SDS011;53956;52.442;13.284;2022-11-20T08:30:26;28.13;;;18.27;;
18125;SDS011;53956;52.442;13.284;2022-11-20T08:32:53;32.40;;;19.53;;
18125;SDS011;53956;52.442;13.284;2022-11-20T08:35:20;30.17;;;18.20;;
18125;SDS011;53956;52.442;13.284;2022-11-20T08:37:48;29.30;;;19.23;;
18125;SDS011;53956;52.442;13.284;2022-11-20T08:40:16;30.10;;;18.93;;
18125;SDS011;53956;52.442;13.284;2022-11-20T08:42:46;29.50;;;18.23;;
18125;SDS011;53956;52.442;13.284;2022-11-20T08:45:13;30.40;;;18.50;;
18125;SDS011;53956;52.442;13.284;2022-11-20T08:47:40;30.60;;;19.20;;
18125;SDS011;53956;52.442;13.284;2022-11-20T08:50:08;30.43;;;18.03;;
18125;SDS011;53956;52.442;13.284;2022-11-20T08:52:35;30.97;;;19.50;;
18125;SDS011;53956;52.442;13.284;2022-11-20T08:55:02;32.93;;;19.60;;
18125;SDS011;53956;52.442;13.284;2022-11-20T08:57:32;28.87;;;18.37;;
18125;SDS011;53956;52.442;13.284;2022-11-20T08:59:59;30.43;;;18.80;;
18125;SDS011;53956;52.442;13.284;2022-11-20T09:02:25;29.53;;;19.23;;
18125;SDS011;53956;52.442;13.284;2022-11-20T09:04:52;31.00;;;18.30;;
18125;SDS011;53956;52.442;13.284;2022-11-20T09:07:19;29.67;;;18.20;;
18125;SDS011;53956;52.442;13.284;2022-11-20T09:09:46;29.33;;;18.87;;
18125;SDS011;53956;52.442;13.284;2022-11-20T09:12:12;28.03;;;17.70;;
18125;SDS011;53956;52.442;13.284;2022-11-20T09:14:41;28.70;;;18.37;;
18125;SDS011;53956;52.442;13.284;2022-11-20T09:17:09;29.03;;;17.83;;
18125;SDS011;53956;52.442;13.284;2022-11-20T09:19:38;30.83;;;19.80;;
18125;SDS011;53956;52.442;13.284;2022-11-20T09:22:05;30.60;;;18.93;;
18125;SDS011;53956;52.442;13.284;2022-11-20T09:24:32;29.07;;;18.67;;
18125;SDS011;53956;52.442;13.284;2022-11-20T09:27:00;30.70;;;19.20;;
18125;SDS011;53956;52.442;13.284;2022-11-20T09:29:28;30.17;;;18.10;;
18125;SDS011;53956;52.442;13.284;2022-11-20T09:31:56;28.00;;;18.60;;
18125;SDS011;53956;52.442;13.284;2022-11-20T09:34:23;29.23;;;17.97;;
18125;SDS011;53956;52.442;13.284;2022-11-20T09:36:50;30.23;;;18.50;;
18125;SDS011;53956;52.442;13.284;2022-11-20T09:39:16;28.93;;;19.00;;
18125;SDS011;53956;52.442;13.284;2022-11-20T09:41:50;32.00;;;19.53;;
18125;SDS011;53956;52.442;13.284;2022-11-20T09:44:33;30.87;;;19.10;;
18125;SDS011;53956;52.442;13.284;2022-11-20T09:47:25;27.60;;;18.33;;
18125;SDS011;53956;52.442;13.284;2022-11-20T09:50:07;27.80;;;18.70;;
18125;SDS011;53956;52.442;13.284;2022-11-20T09:52:45;26.27;;;18.00;;
18125;SDS011;53956;52.442;13.284;2022-11-20T09:55:20;30.20;;;18.87;;
18125;SDS011;53956;52.442;13.284;2022-11-20T09:57:48;27.47;;;18.50;;
18125;SDS011;53956;52.442;13.284;2022-11-20T10:00:17;28.93;;;19.43;;
18125;SDS011;53956;52.442;13.284;2022-11-20T10:02:48;29.87;;;18.50;;
18125;SDS011;53956;52.442;13.284;2022-11-20T10:05:21;27.70;;;18.20;;
18125;SDS011;53956;52.442;13.284;2022-11-20T10:07:52;28.67;;;18.57;;
18125;SDS011;53956;52.442;13.284;2022-11-20T10:10:27;30.53;;;17.73;;
18125;SDS011;53956;52.442;13.284;2022-11-20T10:13:01;26.20;;;18.27;;
18125;SDS011;53956;52.442;13.284;2022-11-20T10:15:37;29.90;;;18.37;;
18125;SDS011;53956;52.442;13.284;2022-11-20T10:18:14;26.93;;;17.30;;
18125;SDS011;53956;52.442;13.284;2022-11-20T10:20:51;26.07;;;18.50;;
18125;SDS011;53956;52.442;13.284;2022-11-20T10:23:26;26.70;;;18.33;;
18125;SDS011;53956;52.442;13.284;2022-11-20T10:26:12;27.83;;;17.87;;
18125;SDS011;53956;52.442;13.284;2022-11-20T10:28:46;32.27;;;18.70;;
18125;SDS011;53956;52.442;13.284;2022-11-20T10:31:25;29.80;;;18.23;;
18125;SDS011;53956;52.442;13.284;2022-11-20T10:33:56;27.43;;;17.70;;
18125;SDS011;53956;52.442;13.284;2022-11-20T10:36:28;28.47;;;18.57;;
18125;SDS011;53956;52.442;13.284;2022-11-20T10:39:01;28.63;;;18.57;;
18125;SDS011;53956;52.442;13.284;2022-11-20T10:41:32;26.80;;;17.10;;
18125;SDS011;53956;52.442;13.284;2022-11-20T10:44:05;27.80;;;17.90;;
18125;SDS011;53956;52.442;13.284;2022-11-20T10:46:38;29.63;;;18.07;;
18125;SDS011;53956;52.442;13.284;2022-11-20T10:49:14;26.40;;;17.43;;
18125;SDS011;53956;52.442;13.284;2022-11-20T10:51:45;25.70;;;17.47;;
18125;SDS011;53956;52.442;13.284;2022-11-20T10:54:22;27.00;;;17.90;;
18125;SDS011;53956;52.442;13.284;2022-11-20T10:56:56;29.27;;;18.20;;
18125;SDS011;53956;52.442;13.284;2022-11-20T10:59:36;26.40;;;16.87;;
18125;SDS011;53956;52.442;13.284;2022-11-20T11:02:16;24.43;;;16.30;;
18125;SDS011;53956;52.442;13.284;2022-11-20T11:04:46;26.90;;;17.50;;
18125;SDS011;53956;52.442;13.284;2022-11-20T11:07:15;25.27;;;17.47;;
18125;SDS011;53956;52.442;13.284;2022-11-20T11:09:46;25.43;;;17.40;;
18125;SDS011;53956;52.442;13.284;2022-11-20T11:12:14;25.13;;;16.97;;
18125;SDS011;53956;52.442;13.284;2022-11-20T11:14:41;27.90;;;18.00;;
18125;SDS011;53956;52.442;13.284;2022-11-20T11:17:22;25.30;;;17.07;;
18125;SDS011;53956;52.442;13.284;2022-11-20T11:20:05;25.50;;;16.33;;
18125;SDS011;53956;52.442;13.284;2022-11-20T11:22:42;25.83;;;16.67;;
18125;SDS011;53956;52.442;13.284;2022-11-20T11:25:17;27.10;;;17.00;;
18125;SDS011;53956;52.442;13.284;2022-11-20T11:27:55;22.17;;;15.63;;
18125;SDS011;53956;52.442;13.284;2022-11-20T11:30:24;25.03;;;16.77;;
18125;SDS011;53956;52.442;13.284;2022-11-20T11:33:02;24.57;;;15.97;;
18125;SDS011;53956;52.442;13.284;2022-11-20T11:35:31;24.67;;;15.73;;
18125;SDS011;53956;52.442;13.284;2022-11-20T11:38:03;24.63;;;16.47;;
18125;SDS011;53956;52.442;13.284;2022-11-20T11:40:32;28.50;;;16.60;;
18125;SDS011;53956;52.442;13.284;2022-11-20T11:43:02;27.40;;;15.60;;
18125;SDS011;53956;52.442;13.284;2022-11-20T11:45:54;25.20;;;15.57;;
18125;SDS011;53956;52.442;13.284;2022-11-20T11:48:20;27.43;;;16.77;;
18125;SDS011;53956;52.442;13.284;2022-11-20T11:50:49;25.63;;;16.10;;
18125;SDS011;53956;52.442;13.284;2022-11-20T11:53:17;25.43;;;15.40;;
18125;SDS011;53956;52.442;13.284;2022-11-20T11:55:47;24.27;;;15.27;;
18125;SDS011;53956;52.442;13.284;2022-11-20T11:58:24;22.27;;;14.47;;
18125;SDS011;53956;52.442;13.284;2022-11-20T12:01:02;23.83;;;14.53;;
18125;SDS011;53956;52.442;13.284;2022-11-20T12:03:34;22.83;;;15.43;;
18125;SDS011;53956;52.442;13.284;2022-11-20T12:06:05;23.17;;;14.23;;
18125;SDS011;53956;52.442;13.284;2022-11-20T12:08:38;22.50;;;14.23;;
18125;SDS011;53956;52.442;13.284;2022-11-20T12:11:11;20.70;;;13.60;;
18125;SDS011;53956;52.442;13.284;2022-11-20T12:13:44;21.73;;;13.90;;
18125;SDS011;53956;52.442;13.284;2022-11-20T12:16:17;21.27;;;12.83;;
18125;SDS011;53956;52.442;13.284;2022-11-20T12:18:46;20.37;;;12.90;;
18125;SDS011;53956;52.442;13.284;2022-11-20T12:21:20;18.73;;;12.67;;
18125;SDS011;53956;52.442;13.284;2022-11-20T12:24:01;18.77;;;12.37;;
18125;SDS011;53956;52.442;13.284;2022-11-20T12:26:45;17.27;;;11.60;;
18125;SDS011;53956;52.442;13.284;2022-11-20T12:29:24;13.13;;;9.10;;
18125;SDS011;53956;52.442;13.284;2022-11-20T12:32:10;15.47;;;10.90;;
18125;SDS011;53956;52.442;13.284;2022-11-20T12:34:56;16.13;;;10.20;;
18125;SDS011;53956;52.442;13.284;2022-11-20T12:37:35;14.43;;;9.57;;
18125;SDS011;53956;52.442;13.284;2022-11-20T12:40:27;16.03;;;9.97;;
18125;SDS011;53956;52.442;13.284;2022-11-20T12:43:01;16.23;;;10.53;;
18125;SDS011;53956;52.442;13.284;2022-11-20T12:46:18;16.57;;;10.43;;
18125;SDS011;53956;52.442;13.284;2022-11-20T12:48:58;15.70;;;9.93;;
18125;SDS011;53956;52.442;13.284;2022-11-20T12:51:42;13.67;;;9.33;;
18125;SDS011;53956;52.442;13.284;2022-11-20T12:54:24;14.50;;;10.03;;
18125;SDS011;53956;52.442;13.284;2022-11-20T12:57:09;15.57;;;9.90;;
18125;SDS011;53956;52.442;13.284;2022-11-20T12:59:49;15.73;;;10.33;;
18125;SDS011;53956;52.442;13.284;2022-11-20T13:02:26;16.30;;;10.17;;
18125;SDS011;53956;52.442;13.284;2022-11-20T13:05:13;16.13;;;10.17;;
18125;SDS011;53956;52.442;13.284;2022-11-20T13:07:46;17.97;;;10.93;;
18125;SDS011;53956;52.442;13.284;2022-11-20T13:10:18;16.67;;;10.67;;
18125;SDS011;53956;52.442;13.284;2022-11-20T13:12:54;16.50;;;11.63;;
18125;SDS011;53956;52.442;13.284;2022-11-20T13:15:30;14.17;;;9.57;;
18125;SDS011;53956;52.442;13.284;2022-11-20T13:18:04;16.47;;;10.23;;
18125;SDS011;53956;52.442;13.284;2022-11-20T13:20:34;19.07;;;11.00;;
18125;SDS011;53956;52.442;13.284;2022-11-20T13:23:02;18.43;;;10.67;;
18125;SDS011;53956;52.442;13.284;2022-11-20T13:25:31;16.03;;;11.30;;
18125;SDS011;53956;52.442;13.284;2022-11-20T13:28:00;16.03;;;11.17;;
18125;SDS011;53956;52.442;13.284;2022-11-20T13:30:29;14.90;;;9.97;;
18125;SDS011;53956;52.442;13.284;2022-11-20T13:32:58;15.63;;;10.10;;
18125;SDS011;53956;52.442;13.284;2022-11-20T13:35:30;16.07;;;10.30;;
18125;SDS011;53956;52.442;13.284;2022-11-20T13:38:04;14.17;;;9.77;;
18125;SDS011;53956;52.442;13.284;2022-11-20T13:40:35;15.83;;;10.60;;
18125;SDS011;53956;52.442;13.284;2022-11-20T13:43:08;15.83;;;10.20;;
18125;SDS011;53956;52.442;13.284;2022-11-20T13:45:42;14.40;;;10.10;;
18125;SDS011;53956;52.442;13.284;2022-11-20T13:48:20;15.67;;;10.70;;
18125;SDS011;53956;52.442;13.284;2022-11-20T13:50:52;15.83;;;10.67;;
18125;SDS011;53956;52.442;13.284;2022-11-20T13:53:29;16.03;;;10.53;;
18125;SDS011;53956;52.442;13.284;2022-11-20T13:56:08;14.90;;;10.30;;
18125;SDS011;53956;52.442;13.284;2022-11-20T13:58:47;17.73;;;10.90;;
18125;SDS011;53956;52.442;13.284;2022-11-20T14:01:19;17.30;;;11.37;;
18125;SDS011;53956;52.442;13.284;2022-11-20T14:03:47;16.93;;;10.10;;
18125;SDS011;53956;52.442;13.284;2022-11-20T14:06:15;16.63;;;10.57;;
18125;SDS011;53956;52.442;13.284;2022-11-20T14:08:49;14.57;;;9.80;;
18125;SDS011;53956;52.442;13.284;2022-11-20T14:11:18;15.20;;;10.07;;
18125;SDS011;53956;52.442;13.284;2022-11-20T14:13:52;14.57;;;9.93;;
18125;SDS011;53956;52.442;13.284;2022-11-20T14:16:24;13.37;;;10.17;;
18125;SDS011;53956;52.442;13.284;2022-11-20T14:18:52;14.23;;;9.60;;
18125;SDS011;53956;52.442;13.284;2022-11-20T14:21:25;15.57;;;10.00;;
18125;SDS011;53956;52.442;13.284;2022-11-20T14:24:02;13.60;;;9.93;;